sensor_id;sensor_type;location;lat;lon;timestamp;P1;durP1;ratioP1;P2;durP2;ratioP2
6505;SDS011;3286;49.858;8.768;2023-02-01T00:02:13;4.13;;;3.43;;
6505;SDS011;3286;49.858;8.768;2023-02-01T00:04:40;7.07;;;3.70;;
6505;SDS011;3286;49.858;8.768;2023-02-01T00:07:06;5.07;;;3.87;;
6505;SDS011;3286;49.858;8.768;2023-02-01T00:09:33;5.57;;;3.50;;
6505;SDS011;3286;49.858;8.768;2023-02-01T00:11:59;7.17;;;3.67;;
6505;SDS011;3286;49.858;8.768;2023-02-01T00:14:29;6.13;;;3.83;;
6505;SDS011;3286;49.858;8.768;2023-02-01T00:16:57;4.00;;;3.20;;
6505;SDS011;3286;49.858;8.768;2023-02-01T00:19:23;5.47;;;3.27;;
6505;SDS011;3286;49.858;8.768;2023-02-01T00:21:50;5.37;;;3.60;;
6505;SDS011;3286;49.858;8.768;2023-02-01T00:24:17;6.00;;;3.63;;
6505;SDS011;3286;49.858;8.768;2023-02-01T00:26:44;5.03;;;3.47;;
6505;SDS011;3286;49.858;8.768;2023-02-01T00:29:12;6.50;;;3.50;;
6505;SDS011;3286;49.858;8.768;2023-02-01T00:31:42;6.73;;;3.73;;
6505;SDS011;3286;49.858;8.768;2023-02-01T00:34:09;8.60;;;3.87;;
6505;SDS011;3286;49.858;8.768;2023-02-01T00:36:37;7.03;;;3.67;;
6505;SDS011;3286;49.858;8.768;2023-02-01T00:39:04;5.97;;;4.00;;
6505;SDS011;3286;49.858;8.768;2023-02-01T00:41:30;7.17;;;4.10;;
6505;SDS011;3286;49.858;8.768;2023-02-01T00:43:57;4.53;;;3.37;;
6505;SDS011;3286;49.858;8.768;2023-02-01T00:46:24;4.20;;;3.57;;
6505;SDS011;3286;49.858;8.768;2023-02-01T00:48:52;4.73;;;3.70;;
6505;SDS011;3286;49.858;8.768;2023-02-01T00:51:19;6.63;;;4.23;;
6505;SDS011;3286;49.858;8.768;2023-02-01T00:53:48;6.70;;;3.83;;
6505;SDS011;3286;49.858;8.768;2023-02-01T00:56:14;5.27;;;4.00;;
6505;SDS011;3286;49.858;8.768;2023-02-01T00:58:41;7.20;;;5.03;;
6505;SDS011;3286;49.858;8.768;2023-02-01T01:01:09;8.03;;;4.40;;
6505;SDS011;3286;49.858;8.768;2023-02-01T01:03:37;11.10;;;4.43;;
6505;SDS011;3286;49.858;8.768;2023-02-01T01:06:07;5.80;;;4.37;;
6505;SDS011;3286;49.858;8.768;2023-02-01T01:08:35;5.53;;;4.40;;
6505;SDS011;3286;49.858;8.768;2023-02-01T01:11:06;7.50;;;4.77;;
6505;SDS011;3286;49.858;8.768;2023-02-01T01:13:34;8.10;;;5.00;;
6505;SDS011;3286;49.858;8.768;2023-02-01T01:16:02;9.23;;;5.17;;
6505;SDS011;3286;49.858;8.768;2023-02-01T01:18:29;7.47;;;4.97;;
6505;SDS011;3286;49.858;8.768;2023-02-01T01:20:57;7.80;;;5.03;;
6505;SDS011;3286;49.858;8.768;2023-02-01T01:23:25;8.60;;;5.23;;
6505;SDS011;3286;49.858;8.768;2023-02-01T01:25:52;6.10;;;4.50;;
6505;SDS011;3286;49.858;8.768;2023-02-01T01:28:19;7.83;;;4.63;;
6505;SDS011;3286;49.858;8.768;2023-02-01T01:30:46;8.53;;;4.67;;
6505;SDS011;3286;49.858;8.768;2023-02-01T01:33:12;6.67;;;4.43;;
6505;SDS011;3286;49.858;8.768;2023-02-01T01:35:39;6.27;;;4.60;;
6505;SDS011;3286;49.858;8.768;2023-02-01T01:38:05;7.27;;;4.70;;
6505;SDS011;3286;49.858;8.768;2023-02-01T01:40:33;10.07;;;4.33;;
6505;SDS011;3286;49.858;8.768;2023-02-01T01:43:00;6.57;;;4.23;;
6505;SDS011;3286;49.858;8.768;2023-02-01T01:45:27;7.80;;;4.60;;
6505;SDS011;3286;49.858;8.768;2023-02-01T01:47:56;5.47;;;3.77;;
6505;SDS011;3286;49.858;8.768;2023-02-01T01:50:25;6.63;;;4.70;;
6505;SDS011;3286;49.858;8.768;2023-02-01T01:52:55;9.60;;;4.50;;
6505;SDS011;3286;49.858;8.768;2023-02-01T01:55:24;6.63;;;4.20;;
6505;SDS011;3286;49.858;8.768;2023-02-01T01:57:55;5.93;;;4.43;;
6505;SDS011;3286;49.858;8.768;2023-02-01T02:00:26;8.43;;;4.53;;
6505;SDS011;3286;49.858;8.768;2023-02-01T02:02:54;11.40;;;4.73;;
6505;SDS011;3286;49.858;8.768;2023-02-01T02:05:24;7.30;;;4.53;;
6505;SDS011;3286;49.858;8.768;2023-02-01T02:07:53;8.47;;;4.47;;
6505;SDS011;3286;49.858;8.768;2023-02-01T02:10:24;6.23;;;4.30;;
6505;SDS011;3286;49.858;8.768;2023-02-01T02:13:13;6.17;;;4.20;;
6505;SDS011;3286;49.858;8.768;2023-02-01T02:15:43;7.47;;;4.10;;
6505;SDS011;3286;49.858;8.768;2023-02-01T02:18:15;9.17;;;5.53;;
6505;SDS011;3286;49.858;8.768;2023-02-01T02:23:50;5.97;;;4.63;;
6505;SDS011;3286;49.858;8.768;2023-02-01T02:26:50;9.70;;;5.10;;
6505;SDS011;3286;49.858;8.768;2023-02-01T02:32:47;8.77;;;4.87;;
6505;SDS011;3286;49.858;8.768;2023-02-01T02:35:28;7.17;;;5.30;;
6505;SDS011;3286;49.858;8.768;2023-02-01T02:38:02;6.43;;;4.90;;
6505;SDS011;3286;49.858;8.768;2023-02-01T02:40:40;8.63;;;5.13;;
6505;SDS011;3286;49.858;8.768;2023-02-01T02:43:14;9.90;;;4.70;;
6505;SDS011;3286;49.858;8.768;2023-02-01T02:46:05;8.20;;;4.53;;
6505;SDS011;3286;49.858;8.768;2023-02-01T02:48:55;6.80;;;4.40;;
6505;SDS011;3286;49.858;8.768;2023-02-01T02:51:30;6.67;;;4.70;;
6505;SDS011;3286;49.858;8.768;2023-02-01T02:54:19;5.83;;;4.43;;
6505;SDS011;3286;49.858;8.768;2023-02-01T02:57:07;5.53;;;4.20;;
6505;SDS011;3286;49.858;8.768;2023-02-01T02:59:55;6.87;;;4.53;;
6505;SDS011;3286;49.858;8.768;2023-02-01T03:02:42;5.73;;;4.33;;
6505;SDS011;3286;49.858;8.768;2023-02-01T03:05:31;8.87;;;4.60;;
6505;SDS011;3286;49.858;8.768;2023-02-01T03:08:04;7.43;;;4.37;;
6505;SDS011;3286;49.858;8.768;2023-02-01T03:10:38;4.50;;;4.00;;
6505;SDS011;3286;49.858;8.768;2023-02-01T03:13:11;7.93;;;4.77;;
6505;SDS011;3286;49.858;8.768;2023-02-01T03:15:45;6.43;;;4.57;;
6505;SDS011;3286;49.858;8.768;2023-02-01T03:18:18;8.77;;;4.73;;
6505;SDS011;3286;49.858;8.768;2023-02-01T03:20:51;5.73;;;3.70;;
6505;SDS011;3286;49.858;8.768;2023-02-01T03:23:22;5.33;;;4.10;;
6505;SDS011;3286;49.858;8.768;2023-02-01T03:25:53;7.30;;;4.30;;
6505;SDS011;3286;49.858;8.768;2023-02-01T03:28:22;5.87;;;3.90;;
6505;SDS011;3286;49.858;8.768;2023-02-01T03:30:52;5.07;;;4.13;;
6505;SDS011;3286;49.858;8.768;2023-02-01T03:33:20;4.73;;;4.10;;
6505;SDS011;3286;49.858;8.768;2023-02-01T03:35:50;4.63;;;3.60;;
6505;SDS011;3286;49.858;8.768;2023-02-01T03:38:26;5.43;;;4.00;;
6505;SDS011;3286;49.858;8.768;2023-02-01T03:40:58;4.20;;;3.70;;
6505;SDS011;3286;49.858;8.768;2023-02-01T03:43:36;5.73;;;3.73;;
6505;SDS011;3286;49.858;8.768;2023-02-01T03:46:12;4.07;;;3.23;;
6505;SDS011;3286;49.858;8.768;2023-02-01T03:48:46;5.47;;;3.50;;
6505;SDS011;3286;49.858;8.768;2023-02-01T03:51:14;3.53;;;2.90;;
6505;SDS011;3286;49.858;8.768;2023-02-01T03:53:45;3.13;;;2.50;;
6505;SDS011;3286;49.858;8.768;2023-02-01T03:56:14;3.10;;;2.30;;
6505;SDS011;3286;49.858;8.768;2023-02-01T03:58:42;3.60;;;2.40;;
6505;SDS011;3286;49.858;8.768;2023-02-01T04:01:22;5.03;;;2.70;;
6505;SDS011;3286;49.858;8.768;2023-02-01T04:03:49;4.03;;;2.60;;
6505;SDS011;3286;49.858;8.768;2023-02-01T04:06:16;4.30;;;3.00;;
6505;SDS011;3286;49.858;8.768;2023-02-01T04:08:44;3.57;;;3.20;;
6505;SDS011;3286;49.858;8.768;2023-02-01T04:11:11;7.13;;;4.03;;
6505;SDS011;3286;49.858;8.768;2023-02-01T04:13:37;8.30;;;4.27;;
6505;SDS011;3286;49.858;8.768;2023-02-01T04:16:04;6.17;;;4.10;;
6505;SDS011;3286;49.858;8.768;2023-02-01T04:18:31;12.37;;;5.00;;
6505;SDS011;3286;49.858;8.768;2023-02-01T04:20:58;5.37;;;4.27;;
6505;SDS011;3286;49.858;8.768;2023-02-01T04:23:26;6.20;;;4.50;;
6505;SDS011;3286;49.858;8.768;2023-02-01T04:25:54;7.00;;;4.97;;
6505;SDS011;3286;49.858;8.768;2023-02-01T04:28:25;8.13;;;5.30;;
6505;SDS011;3286;49.858;8.768;2023-02-01T04:30:52;8.53;;;4.50;;
6505;SDS011;3286;49.858;8.768;2023-02-01T04:33:18;6.70;;;4.27;;
6505;SDS011;3286;49.858;8.768;2023-02-01T04:35:45;5.87;;;4.30;;
6505;SDS011;3286;49.858;8.768;2023-02-01T04:38:11;6.47;;;4.30;;
6505;SDS011;3286;49.858;8.768;2023-02-01T04:40:38;11.10;;;4.70;;
6505;SDS011;3286;49.858;8.768;2023-02-01T04:43:06;6.53;;;4.20;;
6505;SDS011;3286;49.858;8.768;2023-02-01T04:45:33;5.57;;;4.50;;
6505;SDS011;3286;49.858;8.768;2023-02-01T04:47:59;6.57;;;4.13;;
6505;SDS011;3286;49.858;8.768;2023-02-01T04:50:26;5.67;;;4.10;;
6505;SDS011;3286;49.858;8.768;2023-02-01T04:52:52;6.80;;;3.97;;
6505;SDS011;3286;49.858;8.768;2023-02-01T04:55:19;7.60;;;4.20;;
6505;SDS011;3286;49.858;8.768;2023-02-01T04:57:46;8.03;;;4.10;;
6505;SDS011;3286;49.858;8.768;2023-02-01T05:00:14;6.53;;;4.30;;
6505;SDS011;3286;49.858;8.768;2023-02-01T05:02:41;6.37;;;4.30;;
6505;SDS011;3286;49.858;8.768;2023-02-01T05:05:08;6.47;;;3.70;;
6505;SDS011;3286;49.858;8.768;2023-02-01T05:07:35;4.90;;;3.77;;
6505;SDS011;3286;49.858;8.768;2023-02-01T05:10:01;4.63;;;3.70;;
6505;SDS011;3286;49.858;8.768;2023-02-01T05:12:28;6.23;;;3.57;;
6505;SDS011;3286;49.858;8.768;2023-02-01T05:15:14;9.73;;;4.00;;
6505;SDS011;3286;49.858;8.768;2023-02-01T05:17:41;5.57;;;3.17;;
6505;SDS011;3286;49.858;8.768;2023-02-01T05:20:08;6.27;;;3.57;;
6505;SDS011;3286;49.858;8.768;2023-02-01T05:22:35;4.70;;;3.17;;
6505;SDS011;3286;49.858;8.768;2023-02-01T05:25:02;6.57;;;3.13;;
6505;SDS011;3286;49.858;8.768;2023-02-01T05:27:29;4.50;;;3.30;;
6505;SDS011;3286;49.858;8.768;2023-02-01T05:29:56;5.73;;;3.07;;
6505;SDS011;3286;49.858;8.768;2023-02-01T05:32:24;8.00;;;3.53;;
6505;SDS011;3286;49.858;8.768;2023-02-01T05:34:50;8.60;;;3.17;;
6505;SDS011;3286;49.858;8.768;2023-02-01T05:37:17;7.70;;;3.00;;
6505;SDS011;3286;49.858;8.768;2023-02-01T05:39:44;7.80;;;3.23;;
6505;SDS011;3286;49.858;8.768;2023-02-01T05:42:10;5.40;;;2.40;;
6505;SDS011;3286;49.858;8.768;2023-02-01T05:44:37;7.07;;;2.93;;
6505;SDS011;3286;49.858;8.768;2023-02-01T05:47:03;6.43;;;2.70;;
6505;SDS011;3286;49.858;8.768;2023-02-01T05:49:32;4.83;;;2.43;;
6505;SDS011;3286;49.858;8.768;2023-02-01T05:51:58;5.37;;;2.87;;
6505;SDS011;3286;49.858;8.768;2023-02-01T05:54:25;6.93;;;2.50;;
6505;SDS011;3286;49.858;8.768;2023-02-01T05:56:52;7.27;;;2.90;;
6505;SDS011;3286;49.858;8.768;2023-02-01T05:59:19;4.67;;;2.83;;
6505;SDS011;3286;49.858;8.768;2023-02-01T06:01:45;6.47;;;2.30;;
6505;SDS011;3286;49.858;8.768;2023-02-01T06:04:12;8.23;;;2.57;;
6505;SDS011;3286;49.858;8.768;2023-02-01T06:06:40;5.40;;;2.50;;
6505;SDS011;3286;49.858;8.768;2023-02-01T06:09:07;5.53;;;2.43;;
6505;SDS011;3286;49.858;8.768;2023-02-01T06:11:33;5.90;;;2.53;;
6505;SDS011;3286;49.858;8.768;2023-02-01T06:14:00;5.00;;;1.97;;
6505;SDS011;3286;49.858;8.768;2023-02-01T06:16:27;3.93;;;1.90;;
6505;SDS011;3286;49.858;8.768;2023-02-01T06:18:54;4.37;;;1.73;;
6505;SDS011;3286;49.858;8.768;2023-02-01T06:21:24;4.70;;;1.63;;
6505;SDS011;3286;49.858;8.768;2023-02-01T06:23:52;2.70;;;1.63;;
6505;SDS011;3286;49.858;8.768;2023-02-01T06:26:20;3.97;;;1.67;;
6505;SDS011;3286;49.858;8.768;2023-02-01T06:28:47;5.67;;;2.30;;
6505;SDS011;3286;49.858;8.768;2023-02-01T06:31:13;3.10;;;1.67;;
6505;SDS011;3286;49.858;8.768;2023-02-01T06:33:40;6.23;;;1.80;;
6505;SDS011;3286;49.858;8.768;2023-02-01T06:36:07;4.23;;;1.73;;
6505;SDS011;3286;49.858;8.768;2023-02-01T06:38:37;3.10;;;1.70;;
6505;SDS011;3286;49.858;8.768;2023-02-01T06:41:05;3.97;;;1.60;;
6505;SDS011;3286;49.858;8.768;2023-02-01T06:43:32;4.00;;;1.67;;
6505;SDS011;3286;49.858;8.768;2023-02-01T06:45:59;2.93;;;1.53;;
6505;SDS011;3286;49.858;8.768;2023-02-01T06:48:27;4.20;;;2.10;;
6505;SDS011;3286;49.858;8.768;2023-02-01T06:50:53;4.40;;;2.30;;
6505;SDS011;3286;49.858;8.768;2023-02-01T06:53:20;5.53;;;2.50;;
6505;SDS011;3286;49.858;8.768;2023-02-01T06:55:53;6.80;;;3.00;;
6505;SDS011;3286;49.858;8.768;2023-02-01T06:58:22;6.97;;;3.60;;
6505;SDS011;3286;49.858;8.768;2023-02-01T07:00:49;8.30;;;3.23;;
6505;SDS011;3286;49.858;8.768;2023-02-01T07:03:16;5.47;;;3.13;;
6505;SDS011;3286;49.858;8.768;2023-02-01T07:05:42;8.10;;;2.70;;
6505;SDS011;3286;49.858;8.768;2023-02-01T07:08:09;5.67;;;3.27;;
6505;SDS011;3286;49.858;8.768;2023-02-01T07:10:35;10.63;;;3.00;;
6505;SDS011;3286;49.858;8.768;2023-02-01T07:13:02;6.03;;;2.10;;
6505;SDS011;3286;49.858;8.768;2023-02-01T07:15:30;5.83;;;2.17;;
6505;SDS011;3286;49.858;8.768;2023-02-01T07:17:57;6.67;;;1.90;;
6505;SDS011;3286;49.858;8.768;2023-02-01T07:20:23;4.93;;;1.80;;
6505;SDS011;3286;49.858;8.768;2023-02-01T07:22:54;4.47;;;2.20;;
6505;SDS011;3286;49.858;8.768;2023-02-01T07:25:21;6.27;;;2.27;;
6505;SDS011;3286;49.858;8.768;2023-02-01T07:27:48;5.30;;;2.30;;
6505;SDS011;3286;49.858;8.768;2023-02-01T07:30:15;4.23;;;1.90;;
6505;SDS011;3286;49.858;8.768;2023-02-01T07:32:43;6.67;;;2.40;;
6505;SDS011;3286;49.858;8.768;2023-02-01T07:35:10;3.33;;;2.20;;
6505;SDS011;3286;49.858;8.768;2023-02-01T07:37:36;7.00;;;2.60;;
6505;SDS011;3286;49.858;8.768;2023-02-01T07:40:03;6.03;;;2.33;;
6505;SDS011;3286;49.858;8.768;2023-02-01T07:42:31;3.77;;;2.63;;
6505;SDS011;3286;49.858;8.768;2023-02-01T07:44:57;7.37;;;2.90;;
6505;SDS011;3286;49.858;8.768;2023-02-01T07:47:24;8.20;;;3.50;;
6505;SDS011;3286;49.858;8.768;2023-02-01T07:49:52;8.80;;;2.73;;
6505;SDS011;3286;49.858;8.768;2023-02-01T07:52:19;20.17;;;4.50;;
6505;SDS011;3286;49.858;8.768;2023-02-01T07:54:45;10.63;;;3.23;;
6505;SDS011;3286;49.858;8.768;2023-02-01T07:57:12;9.50;;;3.20;;
6505;SDS011;3286;49.858;8.768;2023-02-01T07:59:39;8.43;;;2.83;;
6505;SDS011;3286;49.858;8.768;2023-02-01T08:02:26;6.97;;;3.10;;
6505;SDS011;3286;49.858;8.768;2023-02-01T08:04:53;5.80;;;2.83;;
6505;SDS011;3286;49.858;8.768;2023-02-01T08:07:19;11.53;;;2.90;;
6505;SDS011;3286;49.858;8.768;2023-02-01T08:09:47;6.80;;;3.23;;
6505;SDS011;3286;49.858;8.768;2023-02-01T08:12:13;8.83;;;3.20;;
6505;SDS011;3286;49.858;8.768;2023-02-01T08:14:40;6.47;;;2.63;;
6505;SDS011;3286;49.858;8.768;2023-02-01T08:17:07;8.97;;;3.03;;
6505;SDS011;3286;49.858;8.768;2023-02-01T08:19:33;7.03;;;3.53;;
6505;SDS011;3286;49.858;8.768;2023-02-01T08:22:01;12.03;;;3.57;;
6505;SDS011;3286;49.858;8.768;2023-02-01T08:24:31;6.63;;;2.80;;
6505;SDS011;3286;49.858;8.768;2023-02-01T08:27:00;7.70;;;3.30;;
6505;SDS011;3286;49.858;8.768;2023-02-01T08:29:27;5.70;;;3.20;;
6505;SDS011;3286;49.858;8.768;2023-02-01T08:31:53;11.67;;;3.10;;
6505;SDS011;3286;49.858;8.768;2023-02-01T08:34:21;8.60;;;2.70;;
6505;SDS011;3286;49.858;8.768;2023-02-01T08:36:51;10.63;;;3.27;;
6505;SDS011;3286;49.858;8.768;2023-02-01T08:39:27;14.90;;;4.20;;
6505;SDS011;3286;49.858;8.768;2023-02-01T08:41:54;8.70;;;2.90;;
6505;SDS011;3286;49.858;8.768;2023-02-01T08:44:34;8.70;;;2.70;;
6505;SDS011;3286;49.858;8.768;2023-02-01T08:47:01;8.53;;;2.63;;
6505;SDS011;3286;49.858;8.768;2023-02-01T08:49:30;7.27;;;2.73;;
6505;SDS011;3286;49.858;8.768;2023-02-01T08:51:56;11.67;;;3.30;;
6505;SDS011;3286;49.858;8.768;2023-02-01T08:54:23;9.13;;;3.20;;
6505;SDS011;3286;49.858;8.768;2023-02-01T08:56:51;6.77;;;3.00;;
6505;SDS011;3286;49.858;8.768;2023-02-01T08:59:19;9.87;;;2.67;;
6505;SDS011;3286;49.858;8.768;2023-02-01T09:01:46;8.10;;;2.93;;
6505;SDS011;3286;49.858;8.768;2023-02-01T09:04:12;8.23;;;2.97;;
6505;SDS011;3286;49.858;8.768;2023-02-01T09:06:40;9.47;;;2.53;;
6505;SDS011;3286;49.858;8.768;2023-02-01T09:09:06;8.70;;;3.03;;
6505;SDS011;3286;49.858;8.768;2023-02-01T09:11:33;6.00;;;2.83;;
6505;SDS011;3286;49.858;8.768;2023-02-01T09:14:01;9.50;;;3.50;;
6505;SDS011;3286;49.858;8.768;2023-02-01T09:16:28;8.87;;;2.00;;
6505;SDS011;3286;49.858;8.768;2023-02-01T09:18:55;10.97;;;3.23;;
6505;SDS011;3286;49.858;8.768;2023-02-01T09:21:21;10.00;;;2.73;;
6505;SDS011;3286;49.858;8.768;2023-02-01T09:23:49;10.57;;;2.77;;
6505;SDS011;3286;49.858;8.768;2023-02-01T09:26:16;7.67;;;2.70;;
6505;SDS011;3286;49.858;8.768;2023-02-01T09:28:44;9.40;;;2.83;;
6505;SDS011;3286;49.858;8.768;2023-02-01T09:31:12;7.43;;;2.73;;
6505;SDS011;3286;49.858;8.768;2023-02-01T09:33:39;6.63;;;2.17;;
6505;SDS011;3286;49.858;8.768;2023-02-01T09:36:06;11.50;;;3.20;;
6505;SDS011;3286;49.858;8.768;2023-02-01T09:38:33;11.23;;;2.80;;
6505;SDS011;3286;49.858;8.768;2023-02-01T09:41:00;10.27;;;2.60;;
6505;SDS011;3286;49.858;8.768;2023-02-01T09:43:29;12.73;;;2.70;;
6505;SDS011;3286;49.858;8.768;2023-02-01T09:46:18;8.40;;;2.43;;
6505;SDS011;3286;49.858;8.768;2023-02-01T09:48:49;7.47;;;2.40;;
6505;SDS011;3286;49.858;8.768;2023-02-01T09:51:20;9.07;;;2.33;;
6505;SDS011;3286;49.858;8.768;2023-02-01T09:53:55;11.37;;;2.50;;
6505;SDS011;3286;49.858;8.768;2023-02-01T09:56:27;7.33;;;2.07;;
6505;SDS011;3286;49.858;8.768;2023-02-01T09:59:01;11.07;;;2.67;;
6505;SDS011;3286;49.858;8.768;2023-02-01T10:01:38;5.57;;;2.10;;
6505;SDS011;3286;49.858;8.768;2023-02-01T10:04:05;15.70;;;2.67;;
6505;SDS011;3286;49.858;8.768;2023-02-01T10:06:41;5.80;;;1.93;;
6505;SDS011;3286;49.858;8.768;2023-02-01T10:09:24;11.53;;;2.73;;
6505;SDS011;3286;49.858;8.768;2023-02-01T10:15:13;8.83;;;2.00;;
6505;SDS011;3286;49.858;8.768;2023-02-01T10:17:51;7.17;;;2.07;;
6505;SDS011;3286;49.858;8.768;2023-02-01T10:20:29;9.63;;;2.03;;
6505;SDS011;3286;49.858;8.768;2023-02-01T10:23:06;8.90;;;2.10;;
6505;SDS011;3286;49.858;8.768;2023-02-01T10:25:46;9.30;;;2.30;;
6505;SDS011;3286;49.858;8.768;2023-02-01T10:28:20;6.27;;;1.80;;
6505;SDS011;3286;49.858;8.768;2023-02-01T10:30:51;6.93;;;2.30;;
6505;SDS011;3286;49.858;8.768;2023-02-01T10:33:25;13.30;;;2.20;;
6505;SDS011;3286;49.858;8.768;2023-02-01T10:35:58;5.13;;;1.90;;
6505;SDS011;3286;49.858;8.768;2023-02-01T10:38:30;7.13;;;1.67;;
6505;SDS011;3286;49.858;8.768;2023-02-01T10:41:01;10.20;;;2.07;;
6505;SDS011;3286;49.858;8.768;2023-02-01T10:47:18;7.43;;;2.10;;
6505;SDS011;3286;49.858;8.768;2023-02-01T10:49:49;5.77;;;1.80;;
6505;SDS011;3286;49.858;8.768;2023-02-01T10:52:38;8.40;;;2.13;;
6505;SDS011;3286;49.858;8.768;2023-02-01T10:55:27;9.27;;;2.03;;
6505;SDS011;3286;49.858;8.768;2023-02-01T11:01:20;8.43;;;2.13;;
6505;SDS011;3286;49.858;8.768;2023-02-01T11:03:53;3.37;;;1.77;;
6505;SDS011;3286;49.858;8.768;2023-02-01T11:06:24;10.93;;;2.17;;
6505;SDS011;3286;49.858;8.768;2023-02-01T11:08:54;7.50;;;2.10;;
6505;SDS011;3286;49.858;8.768;2023-02-01T11:11:24;7.50;;;2.67;;
6505;SDS011;3286;49.858;8.768;2023-02-01T11:13:52;9.43;;;2.10;;
6505;SDS011;3286;49.858;8.768;2023-02-01T11:16:21;6.60;;;2.23;;
6505;SDS011;3286;49.858;8.768;2023-02-01T11:18:56;8.93;;;1.70;;
6505;SDS011;3286;49.858;8.768;2023-02-01T11:21:26;6.30;;;2.03;;
6505;SDS011;3286;49.858;8.768;2023-02-01T11:27:12;6.60;;;1.73;;
6505;SDS011;3286;49.858;8.768;2023-02-01T11:29:41;10.60;;;2.20;;
6505;SDS011;3286;49.858;8.768;2023-02-01T11:35:41;8.70;;;2.30;;
6505;SDS011;3286;49.858;8.768;2023-02-01T11:38:51;4.93;;;1.83;;
6505;SDS011;3286;49.858;8.768;2023-02-01T11:42:05;7.33;;;1.93;;
6505;SDS011;3286;49.858;8.768;2023-02-01T11:47:29;5.13;;;2.07;;
6505;SDS011;3286;49.858;8.768;2023-02-01T11:48:23;10.13;;;2.23;;
6505;SDS011;3286;49.858;8.768;2023-02-01T11:50:52;8.60;;;2.80;;
6505;SDS011;3286;49.858;8.768;2023-02-01T11:53:33;8.33;;;2.33;;
6505;SDS011;3286;49.858;8.768;2023-02-01T11:56:15;10.13;;;2.93;;
6505;SDS011;3286;49.858;8.768;2023-02-01T12:01:47;7.00;;;2.17;;
6505;SDS011;3286;49.858;8.768;2023-02-01T12:07:45;9.83;;;2.10;;
6505;SDS011;3286;49.858;8.768;2023-02-01T12:10:30;8.57;;;2.93;;
6505;SDS011;3286;49.858;8.768;2023-02-01T12:13:10;7.23;;;2.20;;
6505;SDS011;3286;49.858;8.768;2023-02-01T12:16:01;4.43;;;1.73;;
6505;SDS011;3286;49.858;8.768;2023-02-01T12:18:46;7.70;;;2.00;;
6505;SDS011;3286;49.858;8.768;2023-02-01T12:21:29;6.43;;;2.00;;
6505;SDS011;3286;49.858;8.768;2023-02-01T12:27:06;5.97;;;2.03;;
6505;SDS011;3286;49.858;8.768;2023-02-01T12:29:52;4.47;;;1.87;;
6505;SDS011;3286;49.858;8.768;2023-02-01T12:32:32;7.37;;;1.80;;
6505;SDS011;3286;49.858;8.768;2023-02-01T12:35:46;6.67;;;2.13;;
6505;SDS011;3286;49.858;8.768;2023-02-01T12:41:19;8.10;;;2.00;;
6505;SDS011;3286;49.858;8.768;2023-02-01T12:44:10;3.47;;;1.40;;
6505;SDS011;3286;49.858;8.768;2023-02-01T12:46:45;7.30;;;2.50;;
6505;SDS011;3286;49.858;8.768;2023-02-01T12:49:15;9.80;;;2.37;;
6505;SDS011;3286;49.858;8.768;2023-02-01T12:51:46;9.17;;;2.60;;
6505;SDS011;3286;49.858;8.768;2023-02-01T12:54:19;12.13;;;2.17;;
6505;SDS011;3286;49.858;8.768;2023-02-01T12:56:57;6.83;;;1.83;;
6505;SDS011;3286;49.858;8.768;2023-02-01T12:59:42;10.80;;;2.77;;
6505;SDS011;3286;49.858;8.768;2023-02-01T13:02:35;7.80;;;1.97;;
6505;SDS011;3286;49.858;8.768;2023-02-01T13:05:12;6.73;;;2.13;;
6505;SDS011;3286;49.858;8.768;2023-02-01T13:07:45;9.97;;;1.93;;
6505;SDS011;3286;49.858;8.768;2023-02-01T13:10:21;6.43;;;1.97;;
6505;SDS011;3286;49.858;8.768;2023-02-01T13:12:57;7.20;;;2.03;;
6505;SDS011;3286;49.858;8.768;2023-02-01T13:15:31;9.87;;;2.03;;
6505;SDS011;3286;49.858;8.768;2023-02-01T13:18:06;10.10;;;2.43;;
6505;SDS011;3286;49.858;8.768;2023-02-01T13:20:42;8.87;;;2.23;;
6505;SDS011;3286;49.858;8.768;2023-02-01T13:23:20;8.77;;;1.87;;
6505;SDS011;3286;49.858;8.768;2023-02-01T13:25:52;7.93;;;2.03;;
6505;SDS011;3286;49.858;8.768;2023-02-01T13:28:22;8.43;;;2.33;;
6505;SDS011;3286;49.858;8.768;2023-02-01T13:30:58;7.17;;;2.10;;
6505;SDS011;3286;49.858;8.768;2023-02-01T13:36:44;6.97;;;2.17;;
6505;SDS011;3286;49.858;8.768;2023-02-01T13:42:15;7.27;;;2.30;;
6505;SDS011;3286;49.858;8.768;2023-02-01T13:44:46;5.93;;;2.17;;
6505;SDS011;3286;49.858;8.768;2023-02-01T13:47:27;5.60;;;1.73;;
6505;SDS011;3286;49.858;8.768;2023-02-01T13:49:56;6.10;;;2.30;;
6505;SDS011;3286;49.858;8.768;2023-02-01T13:52:28;7.97;;;2.20;;
6505;SDS011;3286;49.858;8.768;2023-02-01T13:55:03;6.53;;;2.20;;
6505;SDS011;3286;49.858;8.768;2023-02-01T13:57:42;8.67;;;2.33;;
6505;SDS011;3286;49.858;8.768;2023-02-01T14:00:22;5.83;;;2.30;;
6505;SDS011;3286;49.858;8.768;2023-02-01T14:06:14;4.27;;;2.00;;
6505;SDS011;3286;49.858;8.768;2023-02-01T14:08:46;8.40;;;2.20;;
6505;SDS011;3286;49.858;8.768;2023-02-01T14:11:38;3.73;;;1.57;;
6505;SDS011;3286;49.858;8.768;2023-02-01T14:23:15;8.93;;;2.77;;
6505;SDS011;3286;49.858;8.768;2023-02-01T14:25:45;8.97;;;2.57;;
6505;SDS011;3286;49.858;8.768;2023-02-01T14:28:23;9.53;;;2.07;;
6505;SDS011;3286;49.858;8.768;2023-02-01T14:30:53;6.27;;;2.10;;
6505;SDS011;3286;49.858;8.768;2023-02-01T14:33:22;6.67;;;1.80;;
6505;SDS011;3286;49.858;8.768;2023-02-01T14:35:56;10.10;;;2.20;;
6505;SDS011;3286;49.858;8.768;2023-02-01T14:38:30;6.27;;;2.23;;
6505;SDS011;3286;49.858;8.768;2023-02-01T14:44:36;12.37;;;2.20;;
6505;SDS011;3286;49.858;8.768;2023-02-01T14:49:55;8.43;;;2.83;;
6505;SDS011;3286;49.858;8.768;2023-02-01T14:52:29;10.33;;;3.60;;
6505;SDS011;3286;49.858;8.768;2023-02-01T14:55:01;18.10;;;8.80;;
6505;SDS011;3286;49.858;8.768;2023-02-01T14:57:31;8.00;;;2.40;;
6505;SDS011;3286;49.858;8.768;2023-02-01T15:00:10;8.13;;;2.30;;
6505;SDS011;3286;49.858;8.768;2023-02-01T15:02:45;9.27;;;2.23;;
6505;SDS011;3286;49.858;8.768;2023-02-01T15:05:25;5.50;;;1.87;;
6505;SDS011;3286;49.858;8.768;2023-02-01T15:07:56;8.03;;;2.20;;
6505;SDS011;3286;49.858;8.768;2023-02-01T15:10:26;8.57;;;2.37;;
6505;SDS011;3286;49.858;8.768;2023-02-01T15:12:54;7.47;;;2.00;;
6505;SDS011;3286;49.858;8.768;2023-02-01T15:15:23;9.87;;;2.20;;
6505;SDS011;3286;49.858;8.768;2023-02-01T15:17:51;11.33;;;2.50;;
6505;SDS011;3286;49.858;8.768;2023-02-01T15:20:19;6.97;;;2.03;;
6505;SDS011;3286;49.858;8.768;2023-02-01T15:22:55;9.73;;;2.17;;
6505;SDS011;3286;49.858;8.768;2023-02-01T15:25:24;7.80;;;1.93;;
6505;SDS011;3286;49.858;8.768;2023-02-01T15:27:55;11.23;;;2.57;;
6505;SDS011;3286;49.858;8.768;2023-02-01T15:30:25;7.00;;;2.00;;
6505;SDS011;3286;49.858;8.768;2023-02-01T15:33:04;6.33;;;1.80;;
6505;SDS011;3286;49.858;8.768;2023-02-01T15:35:34;7.47;;;1.90;;
6505;SDS011;3286;49.858;8.768;2023-02-01T15:38:18;5.47;;;1.97;;
6505;SDS011;3286;49.858;8.768;2023-02-01T15:41:01;12.63;;;2.60;;
6505;SDS011;3286;49.858;8.768;2023-02-01T15:43:31;9.33;;;2.60;;
6505;SDS011;3286;49.858;8.768;2023-02-01T15:46:02;7.33;;;2.40;;
6505;SDS011;3286;49.858;8.768;2023-02-01T15:48:36;7.57;;;2.03;;
6505;SDS011;3286;49.858;8.768;2023-02-01T15:51:10;9.93;;;2.60;;
6505;SDS011;3286;49.858;8.768;2023-02-01T15:53:39;6.03;;;2.50;;
6505;SDS011;3286;49.858;8.768;2023-02-01T15:56:12;6.10;;;2.13;;
6505;SDS011;3286;49.858;8.768;2023-02-01T15:58:41;10.23;;;3.63;;
6505;SDS011;3286;49.858;8.768;2023-02-01T16:01:12;8.87;;;3.33;;
6505;SDS011;3286;49.858;8.768;2023-02-01T16:03:48;10.03;;;2.23;;
6505;SDS011;3286;49.858;8.768;2023-02-01T16:06:29;10.07;;;2.93;;
6505;SDS011;3286;49.858;8.768;2023-02-01T16:09:00;6.07;;;2.20;;
6505;SDS011;3286;49.858;8.768;2023-02-01T16:11:30;5.20;;;1.70;;
6505;SDS011;3286;49.858;8.768;2023-02-01T16:13:58;8.10;;;2.30;;
6505;SDS011;3286;49.858;8.768;2023-02-01T16:16:26;7.70;;;2.13;;
6505;SDS011;3286;49.858;8.768;2023-02-01T16:18:54;7.73;;;1.87;;
6505;SDS011;3286;49.858;8.768;2023-02-01T16:21:21;8.90;;;2.57;;
6505;SDS011;3286;49.858;8.768;2023-02-01T16:23:48;6.60;;;1.87;;
6505;SDS011;3286;49.858;8.768;2023-02-01T16:26:16;7.20;;;2.00;;
6505;SDS011;3286;49.858;8.768;2023-02-01T16:28:43;10.30;;;2.73;;
6505;SDS011;3286;49.858;8.768;2023-02-01T16:31:10;9.37;;;2.73;;
6505;SDS011;3286;49.858;8.768;2023-02-01T16:33:45;6.47;;;2.00;;
6505;SDS011;3286;49.858;8.768;2023-02-01T16:36:13;6.30;;;1.93;;
6505;SDS011;3286;49.858;8.768;2023-02-01T16:38:40;7.07;;;2.60;;
6505;SDS011;3286;49.858;8.768;2023-02-01T16:41:09;11.67;;;2.70;;